sensor_id;sensor_type;location;lat;lon;timestamp;P1;durP1;ratioP1;P2;durP2;ratioP2
6388;SDS011;3227;42.654;23.360;2023-04-08T00:01:08;21.10;;;14.53;;
6388;SDS011;3227;42.654;23.360;2023-04-08T00:03:35;20.97;;;14.83;;
6388;SDS011;3227;42.654;23.360;2023-04-08T00:06:02;22.07;;;16.17;;
6388;SDS011;3227;42.654;23.360;2023-04-08T00:08:31;22.57;;;15.20;;
6388;SDS011;3227;42.654;23.360;2023-04-08T00:10:57;24.13;;;15.77;;
6388;SDS011;3227;42.654;23.360;2023-04-08T00:13:24;24.20;;;15.53;;
6388;SDS011;3227;42.654;23.360;2023-04-08T00:15:51;25.00;;;15.40;;
6388;SDS011;3227;42.654;23.360;2023-04-08T00:18:18;22.10;;;15.77;;
6388;SDS011;3227;42.654;23.360;2023-04-08T00:20:45;26.27;;;15.00;;
6388;SDS011;3227;42.654;23.360;2023-04-08T00:23:12;22.13;;;15.43;;
6388;SDS011;3227;42.654;23.360;2023-04-08T00:25:40;25.17;;;15.50;;
6388;SDS011;3227;42.654;23.360;2023-04-08T00:28:12;23.07;;;15.33;;
6388;SDS011;3227;42.654;23.360;2023-04-08T00:30:39;20.30;;;15.93;;
6388;SDS011;3227;42.654;23.360;2023-04-08T00:33:06;21.57;;;15.73;;
6388;SDS011;3227;42.654;23.360;2023-04-08T00:35:34;27.07;;;16.83;;
6388;SDS011;3227;42.654;23.360;2023-04-08T00:38:00;25.60;;;17.67;;
6388;SDS011;3227;42.654;23.360;2023-04-08T00:40:28;29.33;;;19.37;;
6388;SDS011;3227;42.654;23.360;2023-04-08T00:42:56;24.70;;;16.40;;
6388;SDS011;3227;42.654;23.360;2023-04-08T00:45:23;23.97;;;15.73;;
6388;SDS011;3227;42.654;23.360;2023-04-08T00:47:50;23.43;;;15.13;;
6388;SDS011;3227;42.654;23.360;2023-04-08T00:50:17;20.17;;;14.20;;
6388;SDS011;3227;42.654;23.360;2023-04-08T00:52:45;19.00;;;13.40;;
6388;SDS011;3227;42.654;23.360;2023-04-08T00:55:11;20.50;;;13.13;;
6388;SDS011;3227;42.654;23.360;2023-04-08T00:57:38;21.67;;;13.17;;
6388;SDS011;3227;42.654;23.360;2023-04-08T01:00:07;22.67;;;12.83;;
6388;SDS011;3227;42.654;23.360;2023-04-08T01:02:38;19.43;;;13.80;;
6388;SDS011;3227;42.654;23.360;2023-04-08T01:05:12;21.03;;;13.53;;
6388;SDS011;3227;42.654;23.360;2023-04-08T01:07:46;20.80;;;14.60;;
6388;SDS011;3227;42.654;23.360;2023-04-08T01:10:14;19.03;;;13.40;;
6388;SDS011;3227;42.654;23.360;2023-04-08T01:12:47;21.47;;;14.13;;
6388;SDS011;3227;42.654;23.360;2023-04-08T01:15:18;21.83;;;15.17;;
6388;SDS011;3227;42.654;23.360;2023-04-08T01:17:47;19.77;;;13.93;;
6388;SDS011;3227;42.654;23.360;2023-04-08T01:20:19;21.67;;;14.13;;
6388;SDS011;3227;42.654;23.360;2023-04-08T01:22:51;20.90;;;14.30;;
6388;SDS011;3227;42.654;23.360;2023-04-08T01:25:29;23.27;;;14.17;;
6388;SDS011;3227;42.654;23.360;2023-04-08T01:27:59;24.07;;;15.93;;
6388;SDS011;3227;42.654;23.360;2023-04-08T01:30:28;21.33;;;15.37;;
6388;SDS011;3227;42.654;23.360;2023-04-08T01:32:57;20.67;;;14.40;;
6388;SDS011;3227;42.654;23.360;2023-04-08T01:35:27;22.90;;;15.63;;
6388;SDS011;3227;42.654;23.360;2023-04-08T01:37:55;21.20;;;14.67;;
6388;SDS011;3227;42.654;23.360;2023-04-08T01:40:23;22.87;;;14.47;;
6388;SDS011;3227;42.654;23.360;2023-04-08T01:42:51;21.93;;;14.07;;
6388;SDS011;3227;42.654;23.360;2023-04-08T01:45:22;20.00;;;14.30;;
6388;SDS011;3227;42.654;23.360;2023-04-08T01:47:50;18.53;;;13.57;;
6388;SDS011;3227;42.654;23.360;2023-04-08T01:50:17;20.87;;;14.00;;
6388;SDS011;3227;42.654;23.360;2023-04-08T01:52:46;20.20;;;14.30;;
6388;SDS011;3227;42.654;23.360;2023-04-08T01:55:15;18.97;;;14.13;;
6388;SDS011;3227;42.654;23.360;2023-04-08T01:57:43;20.67;;;14.13;;
6388;SDS011;3227;42.654;23.360;2023-04-08T02:00:13;23.77;;;14.90;;
6388;SDS011;3227;42.654;23.360;2023-04-08T02:02:45;19.97;;;14.03;;
6388;SDS011;3227;42.654;23.360;2023-04-08T02:05:13;22.00;;;14.47;;
6388;SDS011;3227;42.654;23.360;2023-04-08T02:07:39;21.47;;;14.37;;
6388;SDS011;3227;42.654;23.360;2023-04-08T02:10:07;29.27;;;14.97;;
6388;SDS011;3227;42.654;23.360;2023-04-08T02:12:34;19.73;;;15.40;;
6388;SDS011;3227;42.654;23.360;2023-04-08T02:15:01;19.87;;;13.60;;
6388;SDS011;3227;42.654;23.360;2023-04-08T02:17:30;20.73;;;15.13;;
6388;SDS011;3227;42.654;23.360;2023-04-08T02:20:06;23.97;;;13.97;;
6388;SDS011;3227;42.654;23.360;2023-04-08T02:22:37;21.17;;;13.23;;
6388;SDS011;3227;42.654;23.360;2023-04-08T02:25:09;20.07;;;13.97;;
6388;SDS011;3227;42.654;23.360;2023-04-08T02:27:39;17.37;;;12.63;;
6388;SDS011;3227;42.654;23.360;2023-04-08T02:30:07;18.60;;;11.77;;
6388;SDS011;3227;42.654;23.360;2023-04-08T02:32:36;15.67;;;11.60;;
6388;SDS011;3227;42.654;23.360;2023-04-08T02:35:04;16.00;;;11.40;;
6388;SDS011;3227;42.654;23.360;2023-04-08T02:37:34;16.10;;;11.07;;
6388;SDS011;3227;42.654;23.360;2023-04-08T02:40:02;16.13;;;11.20;;
6388;SDS011;3227;42.654;23.360;2023-04-08T02:42:29;15.63;;;11.07;;
6388;SDS011;3227;42.654;23.360;2023-04-08T02:44:56;14.30;;;10.53;;
6388;SDS011;3227;42.654;23.360;2023-04-08T02:47:23;16.87;;;11.47;;
6388;SDS011;3227;42.654;23.360;2023-04-08T02:49:50;17.90;;;10.60;;
6388;SDS011;3227;42.654;23.360;2023-04-08T02:52:19;18.43;;;10.80;;
6388;SDS011;3227;42.654;23.360;2023-04-08T02:54:46;16.03;;;10.73;;
6388;SDS011;3227;42.654;23.360;2023-04-08T02:57:13;18.07;;;11.37;;
6388;SDS011;3227;42.654;23.360;2023-04-08T02:59:41;15.60;;;11.07;;
6388;SDS011;3227;42.654;23.360;2023-04-08T03:02:07;14.90;;;10.97;;
6388;SDS011;3227;42.654;23.360;2023-04-08T03:04:34;16.17;;;11.37;;
6388;SDS011;3227;42.654;23.360;2023-04-08T03:07:01;15.57;;;10.87;;
6388;SDS011;3227;42.654;23.360;2023-04-08T03:09:29;13.87;;;10.73;;
6388;SDS011;3227;42.654;23.360;2023-04-08T03:11:56;16.57;;;11.03;;
6388;SDS011;3227;42.654;23.360;2023-04-08T03:14:22;17.40;;;10.73;;
6388;SDS011;3227;42.654;23.360;2023-04-08T03:16:49;18.47;;;10.67;;
6388;SDS011;3227;42.654;23.360;2023-04-08T03:19:16;13.97;;;10.73;;
6388;SDS011;3227;42.654;23.360;2023-04-08T03:21:43;15.80;;;11.27;;
6388;SDS011;3227;42.654;23.360;2023-04-08T03:24:09;19.93;;;11.87;;
6388;SDS011;3227;42.654;23.360;2023-04-08T03:26:38;16.07;;;10.90;;
6388;SDS011;3227;42.654;23.360;2023-04-08T03:29:04;16.10;;;11.50;;
6388;SDS011;3227;42.654;23.360;2023-04-08T03:31:32;16.63;;;11.60;;
6388;SDS011;3227;42.654;23.360;2023-04-08T03:33:58;16.57;;;10.93;;
6388;SDS011;3227;42.654;23.360;2023-04-08T03:36:25;16.97;;;11.10;;
6388;SDS011;3227;42.654;23.360;2023-04-08T03:38:52;16.37;;;11.43;;
6388;SDS011;3227;42.654;23.360;2023-04-08T03:41:19;17.57;;;10.87;;
6388;SDS011;3227;42.654;23.360;2023-04-08T03:43:47;18.13;;;11.53;;
6388;SDS011;3227;42.654;23.360;2023-04-08T03:46:14;18.40;;;10.50;;
6388;SDS011;3227;42.654;23.360;2023-04-08T03:48:41;14.13;;;11.07;;
6388;SDS011;3227;42.654;23.360;2023-04-08T03:51:08;19.90;;;11.87;;
6388;SDS011;3227;42.654;23.360;2023-04-08T03:53:34;20.13;;;13.37;;
6388;SDS011;3227;42.654;23.360;2023-04-08T03:56:01;17.87;;;13.13;;
6388;SDS011;3227;42.654;23.360;2023-04-08T03:58:28;19.63;;;12.13;;
6388;SDS011;3227;42.654;23.360;2023-04-08T04:00:57;20.03;;;12.17;;
6388;SDS011;3227;42.654;23.360;2023-04-08T04:03:24;17.93;;;13.27;;
6388;SDS011;3227;42.654;23.360;2023-04-08T04:05:51;19.03;;;12.57;;
6388;SDS011;3227;42.654;23.360;2023-04-08T04:08:18;22.60;;;13.50;;
6388;SDS011;3227;42.654;23.360;2023-04-08T04:10:45;18.57;;;13.80;;
6388;SDS011;3227;42.654;23.360;2023-04-08T04:13:11;23.13;;;14.93;;
6388;SDS011;3227;42.654;23.360;2023-04-08T04:15:38;19.50;;;14.53;;
6388;SDS011;3227;42.654;23.360;2023-04-08T04:18:07;21.73;;;15.37;;
6388;SDS011;3227;42.654;23.360;2023-04-08T04:20:34;23.83;;;15.50;;
6388;SDS011;3227;42.654;23.360;2023-04-08T04:23:02;23.43;;;16.17;;
6388;SDS011;3227;42.654;23.360;2023-04-08T04:25:29;24.37;;;16.13;;
6388;SDS011;3227;42.654;23.360;2023-04-08T04:27:55;22.63;;;16.80;;
6388;SDS011;3227;42.654;23.360;2023-04-08T04:30:23;20.97;;;15.80;;
6388;SDS011;3227;42.654;23.360;2023-04-08T04:32:50;26.93;;;17.47;;
6388;SDS011;3227;42.654;23.360;2023-04-08T04:35:18;24.90;;;16.87;;
6388;SDS011;3227;42.654;23.360;2023-04-08T04:37:45;23.73;;;15.63;;
6388;SDS011;3227;42.654;23.360;2023-04-08T04:40:14;24.67;;;16.20;;
6388;SDS011;3227;42.654;23.360;2023-04-08T04:42:41;21.33;;;15.10;;
6388;SDS011;3227;42.654;23.360;2023-04-08T04:45:08;21.17;;;15.90;;
6388;SDS011;3227;42.654;23.360;2023-04-08T04:47:35;21.33;;;14.83;;
6388;SDS011;3227;42.654;23.360;2023-04-08T04:50:02;20.93;;;14.77;;
6388;SDS011;3227;42.654;23.360;2023-04-08T04:52:31;22.77;;;14.87;;
6388;SDS011;3227;42.654;23.360;2023-04-08T04:54:58;23.60;;;15.57;;
6388;SDS011;3227;42.654;23.360;2023-04-08T04:57:25;22.53;;;15.07;;
6388;SDS011;3227;42.654;23.360;2023-04-08T04:59:51;30.90;;;16.43;;
6388;SDS011;3227;42.654;23.360;2023-04-08T05:02:18;22.60;;;14.73;;
6388;SDS011;3227;42.654;23.360;2023-04-08T05:04:45;18.90;;;13.90;;
6388;SDS011;3227;42.654;23.360;2023-04-08T05:07:12;20.03;;;14.07;;
6388;SDS011;3227;42.654;23.360;2023-04-08T05:09:40;24.37;;;14.87;;
6388;SDS011;3227;42.654;23.360;2023-04-08T05:12:07;23.63;;;14.93;;
6388;SDS011;3227;42.654;23.360;2023-04-08T05:14:34;24.03;;;15.70;;
6388;SDS011;3227;42.654;23.360;2023-04-08T05:17:00;21.57;;;15.77;;
6388;SDS011;3227;42.654;23.360;2023-04-08T05:19:27;22.20;;;15.57;;
6388;SDS011;3227;42.654;23.360;2023-04-08T05:21:54;29.00;;;16.33;;
6388;SDS011;3227;42.654;23.360;2023-04-08T05:24:20;23.13;;;16.13;;
6388;SDS011;3227;42.654;23.360;2023-04-08T05:26:49;24.77;;;15.83;;
6388;SDS011;3227;42.654;23.360;2023-04-08T05:29:17;29.50;;;15.47;;
6388;SDS011;3227;42.654;23.360;2023-04-08T05:31:45;21.83;;;14.47;;
6388;SDS011;3227;42.654;23.360;2023-04-08T05:34:12;23.23;;;14.60;;
6388;SDS011;3227;42.654;23.360;2023-04-08T05:36:39;21.83;;;13.77;;
6388;SDS011;3227;42.654;23.360;2023-04-08T05:39:06;21.97;;;14.00;;
6388;SDS011;3227;42.654;23.360;2023-04-08T05:41:33;23.80;;;14.73;;
6388;SDS011;3227;42.654;23.360;2023-04-08T05:44:01;27.37;;;15.17;;
6388;SDS011;3227;42.654;23.360;2023-04-08T05:46:28;21.00;;;14.70;;
6388;SDS011;3227;42.654;23.360;2023-04-08T05:48:55;20.73;;;14.23;;
6388;SDS011;3227;42.654;23.360;2023-04-08T05:51:22;23.30;;;15.63;;
6388;SDS011;3227;42.654;23.360;2023-04-08T05:53:48;22.43;;;15.60;;
6388;SDS011;3227;42.654;23.360;2023-04-08T05:56:15;22.33;;;15.60;;
6388;SDS011;3227;42.654;23.360;2023-04-08T05:58:42;20.90;;;15.50;;
6388;SDS011;3227;42.654;23.360;2023-04-08T06:01:10;22.33;;;15.03;;
6388;SDS011;3227;42.654;23.360;2023-04-08T06:03:37;20.00;;;14.43;;
6388;SDS011;3227;42.654;23.360;2023-04-08T06:06:07;21.87;;;15.13;;
6388;SDS011;3227;42.654;23.360;2023-04-08T06:08:35;23.73;;;15.10;;
6388;SDS011;3227;42.654;23.360;2023-04-08T06:11:02;25.30;;;14.83;;
6388;SDS011;3227;42.654;23.360;2023-04-08T06:13:29;25.80;;;15.90;;
6388;SDS011;3227;42.654;23.360;2023-04-08T06:15:56;19.87;;;14.57;;
6388;SDS011;3227;42.654;23.360;2023-04-08T06:18:25;21.77;;;14.07;;
6388;SDS011;3227;42.654;23.360;2023-04-08T06:20:51;22.13;;;14.83;;
6388;SDS011;3227;42.654;23.360;2023-04-08T06:23:18;22.70;;;14.73;;
6388;SDS011;3227;42.654;23.360;2023-04-08T06:25:45;20.23;;;14.20;;
6388;SDS011;3227;42.654;23.360;2023-04-08T06:28:12;19.63;;;13.37;;
6388;SDS011;3227;42.654;23.360;2023-04-08T06:30:39;19.37;;;13.37;;
6388;SDS011;3227;42.654;23.360;2023-04-08T06:33:05;20.37;;;14.20;;
6388;SDS011;3227;42.654;23.360;2023-04-08T06:35:33;21.73;;;13.87;;
6388;SDS011;3227;42.654;23.360;2023-04-08T06:38:01;23.60;;;15.07;;
6388;SDS011;3227;42.654;23.360;2023-04-08T06:40:28;19.80;;;14.30;;
6388;SDS011;3227;42.654;23.360;2023-04-08T06:42:55;20.00;;;13.93;;
6388;SDS011;3227;42.654;23.360;2023-04-08T06:45:21;21.73;;;14.10;;
6388;SDS011;3227;42.654;23.360;2023-04-08T06:47:48;20.07;;;13.57;;
6388;SDS011;3227;42.654;23.360;2023-04-08T06:50:15;19.03;;;14.00;;
6388;SDS011;3227;42.654;23.360;2023-04-08T06:52:43;19.13;;;14.03;;
6388;SDS011;3227;42.654;23.360;2023-04-08T06:55:10;23.37;;;15.67;;
6388;SDS011;3227;42.654;23.360;2023-04-08T06:57:37;24.67;;;13.37;;
6388;SDS011;3227;42.654;23.360;2023-04-08T07:00:04;19.53;;;13.73;;
6388;SDS011;3227;42.654;23.360;2023-04-08T07:02:32;19.87;;;14.13;;
6388;SDS011;3227;42.654;23.360;2023-04-08T07:04:58;20.83;;;14.37;;
6388;SDS011;3227;42.654;23.360;2023-04-08T07:07:25;22.70;;;14.00;;
6388;SDS011;3227;42.654;23.360;2023-04-08T07:09:53;22.00;;;14.00;;
6388;SDS011;3227;42.654;23.360;2023-04-08T07:12:20;19.60;;;14.13;;
6388;SDS011;3227;42.654;23.360;2023-04-08T07:14:47;26.00;;;14.63;;
6388;SDS011;3227;42.654;23.360;2023-04-08T07:17:14;17.93;;;13.20;;
6388;SDS011;3227;42.654;23.360;2023-04-08T07:19:41;18.90;;;13.10;;
6388;SDS011;3227;42.654;23.360;2023-04-08T07:22:08;21.03;;;13.67;;
6388;SDS011;3227;42.654;23.360;2023-04-08T07:24:35;22.10;;;13.60;;
6388;SDS011;3227;42.654;23.360;2023-04-08T07:27:03;19.70;;;13.90;;
6388;SDS011;3227;42.654;23.360;2023-04-08T07:29:29;20.60;;;14.90;;
6388;SDS011;3227;42.654;23.360;2023-04-08T07:31:56;25.20;;;14.50;;
6388;SDS011;3227;42.654;23.360;2023-04-08T07:34:23;23.93;;;14.97;;
6388;SDS011;3227;42.654;23.360;2023-04-08T07:36:50;19.53;;;14.03;;
6388;SDS011;3227;42.654;23.360;2023-04-08T07:39:17;20.83;;;14.67;;
6388;SDS011;3227;42.654;23.360;2023-04-08T07:41:44;20.77;;;14.83;;
6388;SDS011;3227;42.654;23.360;2023-04-08T07:44:12;22.30;;;15.10;;
6388;SDS011;3227;42.654;23.360;2023-04-08T07:46:41;25.90;;;14.50;;
6388;SDS011;3227;42.654;23.360;2023-04-08T07:49:09;18.03;;;13.30;;
6388;SDS011;3227;42.654;23.360;2023-04-08T07:51:36;20.60;;;14.37;;
6388;SDS011;3227;42.654;23.360;2023-04-08T07:54:03;23.30;;;14.53;;
6388;SDS011;3227;42.654;23.360;2023-04-08T07:56:30;19.83;;;14.23;;
6388;SDS011;3227;42.654;23.360;2023-04-08T07:58:57;19.30;;;14.53;;
6388;SDS011;3227;42.654;23.360;2023-04-08T08:01:25;19.60;;;14.17;;
6388;SDS011;3227;42.654;23.360;2023-04-08T08:03:55;18.93;;;13.53;;
6388;SDS011;3227;42.654;23.360;2023-04-08T08:06:22;20.40;;;14.30;;
6388;SDS011;3227;42.654;23.360;2023-04-08T08:08:53;24.03;;;14.20;;
6388;SDS011;3227;42.654;23.360;2023-04-08T08:11:20;19.23;;;12.87;;
6388;SDS011;3227;42.654;23.360;2023-04-08T08:13:47;18.13;;;12.57;;
6388;SDS011;3227;42.654;23.360;2023-04-08T08:16:14;18.13;;;12.23;;
6388;SDS011;3227;42.654;23.360;2023-04-08T08:18:42;17.27;;;12.53;;
6388;SDS011;3227;42.654;23.360;2023-04-08T08:21:09;18.60;;;13.40;;
6388;SDS011;3227;42.654;23.360;2023-04-08T08:23:36;19.20;;;14.88;;
6388;SDS011;3227;42.654;23.360;2023-04-08T08:26:04;21.73;;;15.55;;
6388;SDS011;3227;42.654;23.360;2023-04-08T08:28:31;20.07;;;14.80;;
6388;SDS011;3227;42.654;23.360;2023-04-08T08:30:58;23.80;;;15.03;;
6388;SDS011;3227;42.654;23.360;2023-04-08T08:33:26;21.23;;;15.13;;
6388;SDS011;3227;42.654;23.360;2023-04-08T08:35:54;22.20;;;15.37;;
6388;SDS011;3227;42.654;23.360;2023-04-08T08:38:22;21.33;;;14.43;;
6388;SDS011;3227;42.654;23.360;2023-04-08T08:40:52;22.77;;;15.17;;
6388;SDS011;3227;42.654;23.360;2023-04-08T08:43:20;23.63;;;17.17;;
6388;SDS011;3227;42.654;23.360;2023-04-08T08:45:47;23.17;;;16.40;;
6388;SDS011;3227;42.654;23.360;2023-04-08T08:48:14;26.43;;;16.97;;
6388;SDS011;3227;42.654;23.360;2023-04-08T08:50:41;22.67;;;16.37;;
6388;SDS011;3227;42.654;23.360;2023-04-08T08:53:12;22.38;;;17.98;;
6388;SDS011;3227;42.654;23.360;2023-04-08T08:55:39;22.00;;;15.83;;
6388;SDS011;3227;42.654;23.360;2023-04-08T08:58:06;26.47;;;17.67;;
6388;SDS011;3227;42.654;23.360;2023-04-08T09:00:33;25.37;;;16.40;;
6388;SDS011;3227;42.654;23.360;2023-04-08T09:03:12;26.57;;;17.83;;
6388;SDS011;3227;42.654;23.360;2023-04-08T09:05:47;22.30;;;16.60;;
6388;SDS011;3227;42.654;23.360;2023-04-08T09:08:26;22.47;;;17.13;;
6388;SDS011;3227;42.654;23.360;2023-04-08T09:10:55;25.87;;;18.57;;
6388;SDS011;3227;42.654;23.360;2023-04-08T09:13:35;26.83;;;17.47;;
6388;SDS011;3227;42.654;23.360;2023-04-08T09:16:02;23.27;;;16.07;;
6388;SDS011;3227;42.654;23.360;2023-04-08T09:18:31;24.10;;;16.17;;
6388;SDS011;3227;42.654;23.360;2023-04-08T09:20:59;24.67;;;15.63;;
6388;SDS011;3227;42.654;23.360;2023-04-08T09:23:41;24.67;;;14.53;;
6388;SDS011;3227;42.654;23.360;2023-04-08T09:26:09;22.93;;;15.13;;
6388;SDS011;3227;42.654;23.360;2023-04-08T09:28:38;28.90;;;17.43;;
6388;SDS011;3227;42.654;23.360;2023-04-08T09:31:17;23.10;;;14.93;;
6388;SDS011;3227;42.654;23.360;2023-04-08T09:33:45;23.47;;;15.53;;
6388;SDS011;3227;42.654;23.360;2023-04-08T09:36:13;23.23;;;15.87;;
6388;SDS011;3227;42.654;23.360;2023-04-08T09:38:41;22.57;;;15.07;;
6388;SDS011;3227;42.654;23.360;2023-04-08T09:41:10;23.50;;;15.00;;
6388;SDS011;3227;42.654;23.360;2023-04-08T09:43:40;23.60;;;15.97;;
6388;SDS011;3227;42.654;23.360;2023-04-08T09:46:13;20.63;;;13.87;;
6388;SDS011;3227;42.654;23.360;2023-04-08T09:48:43;24.67;;;15.70;;
6388;SDS011;3227;42.654;23.360;2023-04-08T09:51:16;25.50;;;14.70;;
6388;SDS011;3227;42.654;23.360;2023-04-08T09:53:47;20.40;;;14.53;;
6388;SDS011;3227;42.654;23.360;2023-04-08T09:56:21;22.07;;;16.43;;
6388;SDS011;3227;42.654;23.360;2023-04-08T09:58:50;23.20;;;15.60;;
6388;SDS011;3227;42.654;23.360;2023-04-08T10:01:21;22.63;;;14.80;;
6388;SDS011;3227;42.654;23.360;2023-04-08T10:03:54;24.83;;;15.50;;
6388;SDS011;3227;42.654;23.360;2023-04-08T10:06:23;18.43;;;13.53;;
6388;SDS011;3227;42.654;23.360;2023-04-08T10:08:56;24.00;;;16.33;;
6388;SDS011;3227;42.654;23.360;2023-04-08T10:11:24;22.70;;;14.70;;
6388;SDS011;3227;42.654;23.360;2023-04-08T10:13:51;21.87;;;14.47;;
6388;SDS011;3227;42.654;23.360;2023-04-08T10:16:22;24.57;;;14.93;;
6388;SDS011;3227;42.654;23.360;2023-04-08T10:18:51;26.93;;;15.53;;
6388;SDS011;3227;42.654;23.360;2023-04-08T10:21:33;21.93;;;14.57;;
6388;SDS011;3227;42.654;23.360;2023-04-08T10:24:02;20.60;;;14.07;;
6388;SDS011;3227;42.654;23.360;2023-04-08T10:26:33;19.37;;;13.63;;
6388;SDS011;3227;42.654;23.360;2023-04-08T10:31:58;22.47;;;14.90;;
6388;SDS011;3227;42.654;23.360;2023-04-08T10:34:26;19.87;;;13.50;;
6388;SDS011;3227;42.654;23.360;2023-04-08T10:36:54;22.13;;;15.00;;
6388;SDS011;3227;42.654;23.360;2023-04-08T10:39:25;22.13;;;13.67;;
6388;SDS011;3227;42.654;23.360;2023-04-08T10:41:52;23.07;;;15.77;;
6388;SDS011;3227;42.654;23.360;2023-04-08T10:44:20;24.52;;;16.27;;
6388;SDS011;3227;42.654;23.360;2023-04-08T10:46:48;24.37;;;14.97;;
6388;SDS011;3227;42.654;23.360;2023-04-08T10:49:16;22.10;;;14.80;;
6388;SDS011;3227;42.654;23.360;2023-04-08T10:51:43;19.83;;;14.63;;
6388;SDS011;3227;42.654;23.360;2023-04-08T10:54:11;19.97;;;13.40;;
6388;SDS011;3227;42.654;23.360;2023-04-08T10:56:44;22.23;;;15.25;;
6388;SDS011;3227;42.654;23.360;2023-04-08T10:59:12;21.40;;;13.87;;
6388;SDS011;3227;42.654;23.360;2023-04-08T11:01:41;21.17;;;14.07;;
6388;SDS011;3227;42.654;23.360;2023-04-08T11:04:15;22.08;;;14.80;;
6388;SDS011;3227;42.654;23.360;2023-04-08T11:06:44;19.57;;;12.97;;
6388;SDS011;3227;42.654;23.360;2023-04-08T11:09:12;20.40;;;13.20;;
6388;SDS011;3227;42.654;23.360;2023-04-08T11:11:40;18.50;;;13.17;;
6388;SDS011;3227;42.654;23.360;2023-04-08T11:14:09;19.52;;;13.60;;
6388;SDS011;3227;42.654;23.360;2023-04-08T11:16:36;18.08;;;12.75;;
6388;SDS011;3227;42.654;23.360;2023-04-08T11:19:05;18.30;;;12.40;;
6388;SDS011;3227;42.654;23.360;2023-04-08T11:21:34;16.52;;;11.88;;
6388;SDS011;3227;42.654;23.360;2023-04-08T11:24:05;18.70;;;12.88;;
6388;SDS011;3227;42.654;23.360;2023-04-08T11:26:33;16.50;;;12.37;;
6388;SDS011;3227;42.654;23.360;2023-04-08T11:29:02;17.10;;;11.73;;
6388;SDS011;3227;42.654;23.360;2023-04-08T11:31:31;16.93;;;11.63;;
6388;SDS011;3227;42.654;23.360;2023-04-08T11:33:59;18.23;;;12.20;;
6388;SDS011;3227;42.654;23.360;2023-04-08T11:36:27;17.50;;;11.67;;
6388;SDS011;3227;42.654;23.360;2023-04-08T11:38:54;18.13;;;11.70;;
6388;SDS011;3227;42.654;23.360;2023-04-08T11:41:21;15.97;;;10.77;;
6388;SDS011;3227;42.654;23.360;2023-04-08T11:43:52;19.50;;;11.17;;
6388;SDS011;3227;42.654;23.360;2023-04-08T11:46:20;21.10;;;11.20;;
6388;SDS011;3227;42.654;23.360;2023-04-08T11:49:02;17.30;;;11.10;;
6388;SDS011;3227;42.654;23.360;2023-04-08T11:51:30;15.65;;;12.02;;
6388;SDS011;3227;42.654;23.360;2023-04-08T11:53:58;17.83;;;12.70;;
6388;SDS011;3227;42.654;23.360;2023-04-08T11:56:25;15.88;;;12.32;;
6388;SDS011;3227;42.654;23.360;2023-04-08T11:58:54;21.52;;;13.85;;
6388;SDS011;3227;42.654;23.360;2023-04-08T12:01:21;20.17;;;12.10;;
6388;SDS011;3227;42.654;23.360;2023-04-08T12:03:58;18.27;;;12.30;;
6388;SDS011;3227;42.654;23.360;2023-04-08T12:06:27;16.73;;;12.40;;
6388;SDS011;3227;42.654;23.360;2023-04-08T12:08:54;17.30;;;13.30;;
6388;SDS011;3227;42.654;23.360;2023-04-08T12:11:21;17.30;;;11.73;;
6388;SDS011;3227;42.654;23.360;2023-04-08T12:16:51;15.33;;;10.80;;
6388;SDS011;3227;42.654;23.360;2023-04-08T12:19:18;14.97;;;10.53;;
6388;SDS011;3227;42.654;23.360;2023-04-08T12:21:46;11.83;;;8.73;;
6388;SDS011;3227;42.654;23.360;2023-04-08T12:24:13;11.43;;;8.47;;
6388;SDS011;3227;42.654;23.360;2023-04-08T12:26:40;13.65;;;9.70;;
6388;SDS011;3227;42.654;23.360;2023-04-08T12:29:07;12.70;;;9.03;;
6388;SDS011;3227;42.654;23.360;2023-04-08T12:31:35;13.73;;;9.87;;
6388;SDS011;3227;42.654;23.360;2023-04-08T12:34:02;12.70;;;9.45;;
6388;SDS011;3227;42.654;23.360;2023-04-08T12:36:30;13.40;;;9.75;;
6388;SDS011;3227;42.654;23.360;2023-04-08T12:38:59;12.77;;;8.73;;
6388;SDS011;3227;42.654;23.360;2023-04-08T12:41:25;11.93;;;8.53;;
6388;SDS011;3227;42.654;23.360;2023-04-08T12:43:52;10.73;;;7.93;;
6388;SDS011;3227;42.654;23.360;2023-04-08T12:46:19;12.93;;;8.93;;
6388;SDS011;3227;42.654;23.360;2023-04-08T12:48:46;12.73;;;8.80;;
6388;SDS011;3227;42.654;23.360;2023-04-08T12:51:13;12.23;;;8.37;;
6388;SDS011;3227;42.654;23.360;2023-04-08T12:53:40;12.30;;;8.90;;
6388;SDS011;3227;42.654;23.360;2023-04-08T12:56:08;17.00;;;9.97;;
6388;SDS011;3227;42.654;23.360;2023-04-08T12:58:35;14.23;;;8.60;;
6388;SDS011;3227;42.654;23.360;2023-04-08T13:01:02;12.07;;;8.53;;
6388;SDS011;3227;42.654;23.360;2023-04-08T13:03:29;13.03;;;9.03;;
6388;SDS011;3227;42.654;23.360;2023-04-08T13:05:56;12.43;;;9.33;;
6388;SDS011;3227;42.654;23.360;2023-04-08T13:08:23;15.07;;;10.48;;
6388;SDS011;3227;42.654;23.360;2023-04-08T13:10:50;12.50;;;9.07;;
6388;SDS011;3227;42.654;23.360;2023-04-08T13:13:18;13.27;;;9.73;;
6388;SDS011;3227;42.654;23.360;2023-04-08T13:15:45;13.07;;;9.37;;
6388;SDS011;3227;42.654;23.360;2023-04-08T13:18:12;13.83;;;9.67;;
6388;SDS011;3227;42.654;23.360;2023-04-08T13:20:38;14.27;;;10.70;;
6388;SDS011;3227;42.654;23.360;2023-04-08T13:23:05;14.93;;;9.97;;
6388;SDS011;3227;42.654;23.360;2023-04-08T13:25:32;13.83;;;9.17;;
6388;SDS011;3227;42.654;23.360;2023-04-08T13:27:59;11.80;;;8.77;;
6388;SDS011;3227;42.654;23.360;2023-04-08T13:30:27;13.33;;;9.37;;
6388;SDS011;3227;42.654;23.360;2023-04-08T13:32:54;14.90;;;9.10;;
6388;SDS011;3227;42.654;23.360;2023-04-08T13:35:20;13.60;;;10.00;;
6388;SDS011;3227;42.654;23.360;2023-04-08T13:37:47;12.63;;;9.40;;
6388;SDS011;3227;42.654;23.360;2023-04-08T13:40:14;14.00;;;9.37;;
6388;SDS011;3227;42.654;23.360;2023-04-08T13:42:41;12.27;;;9.10;;
6388;SDS011;3227;42.654;23.360;2023-04-08T13:45:08;13.83;;;9.60;;
6388;SDS011;3227;42.654;23.360;2023-04-08T13:47:37;13.43;;;9.23;;
6388;SDS011;3227;42.654;23.360;2023-04-08T13:50:04;14.33;;;10.13;;
6388;SDS011;3227;42.654;23.360;2023-04-08T13:52:32;13.73;;;9.90;;
6388;SDS011;3227;42.654;23.360;2023-04-08T13:54:59;13.77;;;9.73;;
6388;SDS011;3227;42.654;23.360;2023-04-08T13:57:26;11.87;;;9.13;;
6388;SDS011;3227;42.654;23.360;2023-04-08T13:59:52;14.75;;;9.23;;
6388;SDS011;3227;42.654;23.360;2023-04-08T14:02:19;13.82;;;9.18;;
6388;SDS011;3227;42.654;23.360;2023-04-08T14:04:48;11.90;;;8.30;;
6388;SDS011;3227;42.654;23.360;2023-04-08T14:07:16;12.60;;;8.80;;
6388;SDS011;3227;42.654;23.360;2023-04-08T14:09:43;12.33;;;8.77;;
6388;SDS011;3227;42.654;23.360;2023-04-08T14:12:10;12.47;;;9.03;;
6388;SDS011;3227;42.654;23.360;2023-04-08T14:14:37;11.37;;;8.70;;
6388;SDS011;3227;42.654;23.360;2023-04-08T14:17:03;15.20;;;9.97;;
6388;SDS011;3227;42.654;23.360;2023-04-08T14:19:30;13.23;;;9.07;;
6388;SDS011;3227;42.654;23.360;2023-04-08T14:21:58;15.23;;;10.57;;
6388;SDS011;3227;42.654;23.360;2023-04-08T14:24:25;15.53;;;10.33;;
6388;SDS011;3227;42.654;23.360;2023-04-08T14:26:52;15.37;;;11.17;;
6388;SDS011;3227;42.654;23.360;2023-04-08T14:29:19;15.03;;;11.20;;
6388;SDS011;3227;42.654;23.360;2023-04-08T14:31:46;18.47;;;11.37;;
6388;SDS011;3227;42.654;23.360;2023-04-08T14:34:13;16.63;;;12.30;;
6388;SDS011;3227;42.654;23.360;2023-04-08T14:36:40;16.13;;;12.10;;
6388;SDS011;3227;42.654;23.360;2023-04-08T14:39:13;16.47;;;11.93;;
6388;SDS011;3227;42.654;23.360;2023-04-08T14:41:40;11.60;;;8.67;;
6388;SDS011;3227;42.654;23.360;2023-04-08T14:44:08;12.73;;;9.47;;
6388;SDS011;3227;42.654;23.360;2023-04-08T14:46:35;13.07;;;9.60;;